sensor_id;sensor_type;location;lat;lon;timestamp;temperature;humidity
11091;DHT22;5599;52.210;21.046;2022-08-21T00:01:56;23.20;1.00
11091;DHT22;5599;52.210;21.046;2022-08-21T00:04:27;23.20;99.90
11091;DHT22;5599;52.210;21.046;2022-08-21T00:06:57;23.10;1.00
11091;DHT22;5599;52.210;21.046;2022-08-21T00:09:26;23.00;1.00
11091;DHT22;5599;52.210;21.046;2022-08-21T00:11:56;22.90;99.90
11091;DHT22;5599;52.210;21.046;2022-08-21T00:14:25;22.90;45.30
11091;DHT22;5599;52.210;21.046;2022-08-21T00:16:58;22.80;99.90
11091;DHT22;5599;52.210;21.046;2022-08-21T00:19:30;22.70;1.00
11091;DHT22;5599;52.210;21.046;2022-08-21T00:21:59;22.70;99.90
11091;DHT22;5599;52.210;21.046;2022-08-21T00:24:29;22.70;99.90
11091;DHT22;5599;52.210;21.046;2022-08-21T00:26:58;22.70;1.00
11091;DHT22;5599;52.210;21.046;2022-08-21T00:29:28;22.70;99.90
11091;DHT22;5599;52.210;21.046;2022-08-21T00:31:57;22.70;99.90
11091;DHT22;5599;52.210;21.046;2022-08-21T00:34:29;22.60;1.00
11091;DHT22;5599;52.210;21.046;2022-08-21T00:36:59;22.60;1.00
11091;DHT22;5599;52.210;21.046;2022-08-21T00:39:28;22.50;98.80
11091;DHT22;5599;52.210;21.046;2022-08-21T00:41:57;22.50;1.00
11091;DHT22;5599;52.210;21.046;2022-08-21T00:44:27;22.50;1.00
11091;DHT22;5599;52.210;21.046;2022-08-21T00:46:56;22.50;1.00
11091;DHT22;5599;52.210;21.046;2022-08-21T00:49:26;22.50;1.00
11091;DHT22;5599;52.210;21.046;2022-08-21T00:52:00;22.50;1.00
11091;DHT22;5599;52.210;21.046;2022-08-21T00:54:31;22.50;99.90
11091;DHT22;5599;52.210;21.046;2022-08-21T00:57:03;22.40;99.90
11091;DHT22;5599;52.210;21.046;2022-08-21T00:59:36;22.40;99.90
11091;DHT22;5599;52.210;21.046;2022-08-21T01:02:07;22.40;1.00
11091;DHT22;5599;52.210;21.046;2022-08-21T01:04:38;22.30;1.00
11091;DHT22;5599;52.210;21.046;2022-08-21T01:07:09;22.30;1.00
11091;DHT22;5599;52.210;21.046;2022-08-21T01:09:39;22.30;99.90
11091;DHT22;5599;52.210;21.046;2022-08-21T01:12:10;22.20;1.00
11091;DHT22;5599;52.210;21.046;2022-08-21T01:14:40;22.30;1.00
11091;DHT22;5599;52.210;21.046;2022-08-21T01:17:12;22.10;1.00
11091;DHT22;5599;52.210;21.046;2022-08-21T01:19:42;22.10;1.00
11091;DHT22;5599;52.210;21.046;2022-08-21T01:22:13;22.10;1.00
11091;DHT22;5599;52.210;21.046;2022-08-21T01:24:42;22.10;1.00
11091;DHT22;5599;52.210;21.046;2022-08-21T01:27:12;22.00;1.00
11091;DHT22;5599;52.210;21.046;2022-08-21T01:29:48;22.00;1.00
11091;DHT22;5599;52.210;21.046;2022-08-21T01:32:19;21.90;1.00
11091;DHT22;5599;52.210;21.046;2022-08-21T01:34:50;21.80;99.90
11091;DHT22;5599;52.210;21.046;2022-08-21T01:37:22;21.90;99.90
11091;DHT22;5599;52.210;21.046;2022-08-21T01:39:52;21.90;1.00
11091;DHT22;5599;52.210;21.046;2022-08-21T01:42:22;21.90;99.90
11091;DHT22;5599;52.210;21.046;2022-08-21T01:44:51;21.90;99.90
11091;DHT22;5599;52.210;21.046;2022-08-21T01:47:23;21.90;99.90
11091;DHT22;5599;52.210;21.046;2022-08-21T01:49:52;21.90;1.00
11091;DHT22;5599;52.210;21.046;2022-08-21T01:52:23;21.90;1.00
11091;DHT22;5599;52.210;21.046;2022-08-21T01:54:53;21.90;29.70
11091;DHT22;5599;52.210;21.046;2022-08-21T01:57:23;21.90;99.90
11091;DHT22;5599;52.210;21.046;2022-08-21T01:59:53;21.80;99.90
11091;DHT22;5599;52.210;21.046;2022-08-21T02:02:23;21.80;99.90
11091;DHT22;5599;52.210;21.046;2022-08-21T02:04:52;21.80;1.00
11091;DHT22;5599;52.210;21.046;2022-08-21T02:07:23;21.80;99.90
11091;DHT22;5599;52.210;21.046;2022-08-21T02:09:52;21.80;99.90
11091;DHT22;5599;52.210;21.046;2022-08-21T02:12:22;21.70;99.90
11091;DHT22;5599;52.210;21.046;2022-08-21T02:14:52;21.70;99.90
11091;DHT22;5599;52.210;21.046;2022-08-21T02:17:21;21.60;99.90
11091;DHT22;5599;52.210;21.046;2022-08-21T02:19:50;21.60;99.90
11091;DHT22;5599;52.210;21.046;2022-08-21T02:22:20;21.60;99.90
11091;DHT22;5599;52.210;21.046;2022-08-21T02:24:50;21.50;99.90
11091;DHT22;5599;52.210;21.046;2022-08-21T02:27:22;21.40;1.00
11091;DHT22;5599;52.210;21.046;2022-08-21T02:29:54;21.40;99.90
11091;DHT22;5599;52.210;21.046;2022-08-21T02:32:24;21.40;99.90
11091;DHT22;5599;52.210;21.046;2022-08-21T02:34:54;21.30;99.90
11091;DHT22;5599;52.210;21.046;2022-08-21T02:37:24;21.30;1.00
11091;DHT22;5599;52.210;21.046;2022-08-21T02:39:54;21.20;1.00
11091;DHT22;5599;52.210;21.046;2022-08-21T02:42:24;21.20;99.90
11091;DHT22;5599;52.210;21.046;2022-08-21T02:44:53;21.10;1.00
11091;DHT22;5599;52.210;21.046;2022-08-21T02:47:23;21.10;1.00
11091;DHT22;5599;52.210;21.046;2022-08-21T02:49:52;21.20;99.90
11091;DHT22;5599;52.210;21.046;2022-08-21T02:52:22;21.00;1.00
11091;DHT22;5599;52.210;21.046;2022-08-21T02:54:51;21.00;1.00
11091;DHT22;5599;52.210;21.046;2022-08-21T02:57:22;21.00;1.00
11091;DHT22;5599;52.210;21.046;2022-08-21T02:59:51;20.90;1.00
11091;DHT22;5599;52.210;21.046;2022-08-21T03:02:21;21.00;1.00
11091;DHT22;5599;52.210;21.046;2022-08-21T03:04:53;21.00;1.00
11091;DHT22;5599;52.210;21.046;2022-08-21T03:07:22;21.00;99.90
11091;DHT22;5599;52.210;21.046;2022-08-21T03:09:51;21.00;99.90
11091;DHT22;5599;52.210;21.046;2022-08-21T03:12:24;21.00;99.90
11091;DHT22;5599;52.210;21.046;2022-08-21T03:14:56;21.00;99.90
11091;DHT22;5599;52.210;21.046;2022-08-21T03:17:26;21.00;99.90
11091;DHT22;5599;52.210;21.046;2022-08-21T03:19:57;21.00;1.00
11091;DHT22;5599;52.210;21.046;2022-08-21T03:22:26;20.90;99.90
11091;DHT22;5599;52.210;21.046;2022-08-21T03:24:57;20.80;1.00
11091;DHT22;5599;52.210;21.046;2022-08-21T03:27:28;20.60;1.00
11091;DHT22;5599;52.210;21.046;2022-08-21T03:29:58;20.50;1.00
11091;DHT22;5599;52.210;21.046;2022-08-21T03:32:27;20.60;1.00
11091;DHT22;5599;52.210;21.046;2022-08-21T03:34:59;20.50;1.00
11091;DHT22;5599;52.210;21.046;2022-08-21T03:37:29;20.40;1.00
11091;DHT22;5599;52.210;21.046;2022-08-21T03:39:59;20.40;1.00
11091;DHT22;5599;52.210;21.046;2022-08-21T03:42:30;20.40;1.00
11091;DHT22;5599;52.210;21.046;2022-08-21T03:45:00;20.40;1.00
11091;DHT22;5599;52.210;21.046;2022-08-21T03:47:29;20.30;1.00
11091;DHT22;5599;52.210;21.046;2022-08-21T03:49:58;20.40;1.00
11091;DHT22;5599;52.210;21.046;2022-08-21T03:52:28;20.40;1.00
11091;DHT22;5599;52.210;21.046;2022-08-21T03:54:57;20.40;1.00
11091;DHT22;5599;52.210;21.046;2022-08-21T03:57:26;20.50;1.00
11091;DHT22;5599;52.210;21.046;2022-08-21T03:59:58;20.50;1.00
11091;DHT22;5599;52.210;21.046;2022-08-21T04:02:27;20.50;1.00
11091;DHT22;5599;52.210;21.046;2022-08-21T04:04:56;20.60;1.00
11091;DHT22;5599;52.210;21.046;2022-08-21T04:07:26;20.50;1.00
11091;DHT22;5599;52.210;21.046;2022-08-21T04:09:55;20.50;1.00
11091;DHT22;5599;52.210;21.046;2022-08-21T04:12:25;20.60;1.00
11091;DHT22;5599;52.210;21.046;2022-08-21T04:14:54;20.60;1.00
11091;DHT22;5599;52.210;21.046;2022-08-21T04:17:25;20.70;1.00
11091;DHT22;5599;52.210;21.046;2022-08-21T04:19:55;20.80;99.90
11091;DHT22;5599;52.210;21.046;2022-08-21T04:22:24;20.90;99.90
11091;DHT22;5599;52.210;21.046;2022-08-21T04:24:54;20.90;99.90
11091;DHT22;5599;52.210;21.046;2022-08-21T04:27:24;20.90;99.90
11091;DHT22;5599;52.210;21.046;2022-08-21T04:29:53;21.00;99.90
11091;DHT22;5599;52.210;21.046;2022-08-21T04:32:25;21.00;99.90
11091;DHT22;5599;52.210;21.046;2022-08-21T04:34:58;21.20;99.90
11091;DHT22;5599;52.210;21.046;2022-08-21T04:37:28;21.20;99.90
11091;DHT22;5599;52.210;21.046;2022-08-21T04:39:57;21.20;1.00
11091;DHT22;5599;52.210;21.046;2022-08-21T04:42:28;21.20;99.90
11091;DHT22;5599;52.210;21.046;2022-08-21T04:44:57;21.20;99.90
11091;DHT22;5599;52.210;21.046;2022-08-21T04:47:28;21.40;1.00
11091;DHT22;5599;52.210;21.046;2022-08-21T04:50:18;21.60;1.00
11091;DHT22;5599;52.210;21.046;2022-08-21T04:53:04;21.70;99.90
11091;DHT22;5599;52.210;21.046;2022-08-21T04:55:35;21.80;99.90
11091;DHT22;5599;52.210;21.046;2022-08-21T04:58:06;22.10;99.90
11091;DHT22;5599;52.210;21.046;2022-08-21T05:00:36;22.50;1.00
11091;DHT22;5599;52.210;21.046;2022-08-21T05:03:10;22.90;99.90
11091;DHT22;5599;52.210;21.046;2022-08-21T05:05:41;23.30;1.00
11091;DHT22;5599;52.210;21.046;2022-08-21T05:08:14;23.40;1.00
11091;DHT22;5599;52.210;21.046;2022-08-21T05:10:44;23.70;99.90
11091;DHT22;5599;52.210;21.046;2022-08-21T05:13:14;23.90;99.90
11091;DHT22;5599;52.210;21.046;2022-08-21T05:15:44;24.00;1.00
11091;DHT22;5599;52.210;21.046;2022-08-21T05:18:15;24.10;1.00
11091;DHT22;5599;52.210;21.046;2022-08-21T05:20:44;24.40;1.00
11091;DHT22;5599;52.210;21.046;2022-08-21T05:23:14;24.60;18.80
11091;DHT22;5599;52.210;21.046;2022-08-21T05:25:43;24.80;99.90
11091;DHT22;5599;52.210;21.046;2022-08-21T05:28:15;24.90;1.00
11091;DHT22;5599;52.210;21.046;2022-08-21T05:30:46;25.10;62.60
11091;DHT22;5599;52.210;21.046;2022-08-21T05:33:17;25.20;99.90
11091;DHT22;5599;52.210;21.046;2022-08-21T05:35:49;25.20;1.00
11091;DHT22;5599;52.210;21.046;2022-08-21T05:38:19;25.20;1.00
11091;DHT22;5599;52.210;21.046;2022-08-21T05:40:49;25.10;1.00
11091;DHT22;5599;52.210;21.046;2022-08-21T05:43:19;25.20;99.90
11091;DHT22;5599;52.210;21.046;2022-08-21T05:45:49;25.30;72.20
11091;DHT22;5599;52.210;21.046;2022-08-21T05:48:22;25.20;1.00
11091;DHT22;5599;52.210;21.046;2022-08-21T05:50:52;25.00;1.00
11091;DHT22;5599;52.210;21.046;2022-08-21T05:53:22;25.00;99.90
11091;DHT22;5599;52.210;21.046;2022-08-21T05:55:52;25.10;1.00
11091;DHT22;5599;52.210;21.046;2022-08-21T05:58:21;25.10;45.40
11091;DHT22;5599;52.210;21.046;2022-08-21T06:00:51;25.30;99.90
11091;DHT22;5599;52.210;21.046;2022-08-21T06:03:25;25.50;99.50
11091;DHT22;5599;52.210;21.046;2022-08-21T06:05:54;25.90;31.20
11091;DHT22;5599;52.210;21.046;2022-08-21T06:08:24;26.20;91.80
11091;DHT22;5599;52.210;21.046;2022-08-21T06:10:55;26.40;99.90
11091;DHT22;5599;52.210;21.046;2022-08-21T06:13:26;26.20;71.00
11091;DHT22;5599;52.210;21.046;2022-08-21T06:16:07;26.20;1.00
11091;DHT22;5599;52.210;21.046;2022-08-21T06:18:39;26.50;1.00
11091;DHT22;5599;52.210;21.046;2022-08-21T06:21:09;26.70;1.00
11091;DHT22;5599;52.210;21.046;2022-08-21T06:23:39;27.10;1.00
11091;DHT22;5599;52.210;21.046;2022-08-21T06:26:11;27.50;99.90
11091;DHT22;5599;52.210;21.046;2022-08-21T06:28:41;27.40;1.00
11091;DHT22;5599;52.210;21.046;2022-08-21T06:31:13;27.20;99.90
11091;DHT22;5599;52.210;21.046;2022-08-21T06:33:45;27.40;99.90
11091;DHT22;5599;52.210;21.046;2022-08-21T06:36:15;28.00;99.90
11091;DHT22;5599;52.210;21.046;2022-08-21T06:38:45;28.20;99.90
11091;DHT22;5599;52.210;21.046;2022-08-21T06:41:18;28.60;1.00
11091;DHT22;5599;52.210;21.046;2022-08-21T06:43:50;29.00;1.00
11091;DHT22;5599;52.210;21.046;2022-08-21T06:46:20;29.40;1.00
11091;DHT22;5599;52.210;21.046;2022-08-21T06:48:52;29.90;99.90
11091;DHT22;5599;52.210;21.046;2022-08-21T06:51:22;30.20;99.90
11091;DHT22;5599;52.210;21.046;2022-08-21T06:53:53;30.50;99.90
11091;DHT22;5599;52.210;21.046;2022-08-21T06:56:26;30.70;99.90
11091;DHT22;5599;52.210;21.046;2022-08-21T06:58:58;30.80;1.00
11091;DHT22;5599;52.210;21.046;2022-08-21T07:01:28;30.70;99.90
11091;DHT22;5599;52.210;21.046;2022-08-21T07:03:59;30.70;99.90
11091;DHT22;5599;52.210;21.046;2022-08-21T07:06:29;30.70;1.00
11091;DHT22;5599;52.210;21.046;2022-08-21T07:09:02;30.90;31.30
11091;DHT22;5599;52.210;21.046;2022-08-21T07:11:32;31.20;99.90
11091;DHT22;5599;52.210;21.046;2022-08-21T07:14:11;31.40;86.60
11091;DHT22;5599;52.210;21.046;2022-08-21T07:16:47;31.60;8.10
11091;DHT22;5599;52.210;21.046;2022-08-21T07:19:18;31.70;1.00
11091;DHT22;5599;52.210;21.046;2022-08-21T07:21:48;32.10;99.90
11091;DHT22;5599;52.210;21.046;2022-08-21T07:24:17;32.50;1.00
11091;DHT22;5599;52.210;21.046;2022-08-21T07:26:47;33.00;53.00
11091;DHT22;5599;52.210;21.046;2022-08-21T07:29:16;33.40;1.00
11091;DHT22;5599;52.210;21.046;2022-08-21T07:31:46;33.70;99.90
11091;DHT22;5599;52.210;21.046;2022-08-21T07:34:18;33.50;1.00
11091;DHT22;5599;52.210;21.046;2022-08-21T07:36:48;33.40;99.90
11091;DHT22;5599;52.210;21.046;2022-08-21T07:39:17;32.90;99.90
11091;DHT22;5599;52.210;21.046;2022-08-21T07:41:47;32.80;1.00
11091;DHT22;5599;52.210;21.046;2022-08-21T07:44:17;32.50;1.00
11091;DHT22;5599;52.210;21.046;2022-08-21T07:46:47;32.50;1.00
11091;DHT22;5599;52.210;21.046;2022-08-21T07:49:19;32.50;99.90
11091;DHT22;5599;52.210;21.046;2022-08-21T07:51:49;32.90;1.00
11091;DHT22;5599;52.210;21.046;2022-08-21T07:54:19;33.00;99.90
11091;DHT22;5599;52.210;21.046;2022-08-21T07:57:00;32.50;1.00
11091;DHT22;5599;52.210;21.046;2022-08-21T07:59:30;32.50;1.00
11091;DHT22;5599;52.210;21.046;2022-08-21T08:02:00;33.00;96.60
11091;DHT22;5599;52.210;21.046;2022-08-21T08:04:32;33.00;99.90
11091;DHT22;5599;52.210;21.046;2022-08-21T08:07:02;32.60;99.90
11091;DHT22;5599;52.210;21.046;2022-08-21T08:09:32;32.00;1.00
11091;DHT22;5599;52.210;21.046;2022-08-21T08:12:02;31.60;1.00
11091;DHT22;5599;52.210;21.046;2022-08-21T08:14:32;31.60;1.00
11091;DHT22;5599;52.210;21.046;2022-08-21T08:17:02;32.10;1.00
11091;DHT22;5599;52.210;21.046;2022-08-21T08:19:33;32.50;99.90
11091;DHT22;5599;52.210;21.046;2022-08-21T08:22:13;32.70;1.00
11091;DHT22;5599;52.210;21.046;2022-08-21T08:24:43;32.50;23.20
11091;DHT22;5599;52.210;21.046;2022-08-21T08:27:12;32.20;1.00
11091;DHT22;5599;52.210;21.046;2022-08-21T08:29:42;31.60;99.90
11091;DHT22;5599;52.210;21.046;2022-08-21T08:32:11;31.40;99.90
11091;DHT22;5599;52.210;21.046;2022-08-21T08:34:43;31.40;1.00
11091;DHT22;5599;52.210;21.046;2022-08-21T08:37:15;31.00;1.00
11091;DHT22;5599;52.210;21.046;2022-08-21T08:39:46;31.00;99.90
11091;DHT22;5599;52.210;21.046;2022-08-21T08:42:22;31.30;1.00
11091;DHT22;5599;52.210;21.046;2022-08-21T08:45:03;31.50;99.90
11091;DHT22;5599;52.210;21.046;2022-08-21T08:47:37;31.40;1.00
11091;DHT22;5599;52.210;21.046;2022-08-21T08:50:12;31.30;1.00
11091;DHT22;5599;52.210;21.046;2022-08-21T08:52:45;31.80;1.00
11091;DHT22;5599;52.210;21.046;2022-08-21T08:55:20;32.00;1.00
11091;DHT22;5599;52.210;21.046;2022-08-21T08:57:54;32.30;2.80
11091;DHT22;5599;52.210;21.046;2022-08-21T09:00:25;32.20;99.90
11091;DHT22;5599;52.210;21.046;2022-08-21T09:02:56;31.70;1.00
11091;DHT22;5599;52.210;21.046;2022-08-21T09:05:33;31.10;1.00
11091;DHT22;5599;52.210;21.046;2022-08-21T09:08:31;31.10;1.00
11091;DHT22;5599;52.210;21.046;2022-08-21T09:11:04;31.10;99.90
11091;DHT22;5599;52.210;21.046;2022-08-21T09:13:46;31.00;99.90
11091;DHT22;5599;52.210;21.046;2022-08-21T09:16:24;30.60;1.00
11091;DHT22;5599;52.210;21.046;2022-08-21T09:19:04;30.20;1.00
11091;DHT22;5599;52.210;21.046;2022-08-21T09:21:47;30.70;1.00
11091;DHT22;5599;52.210;21.046;2022-08-21T09:24:29;30.90;1.00
11091;DHT22;5599;52.210;21.046;2022-08-21T09:27:04;31.20;1.00
11091;DHT22;5599;52.210;21.046;2022-08-21T09:29:38;31.60;99.90
11091;DHT22;5599;52.210;21.046;2022-08-21T09:32:14;32.10;1.00
11091;DHT22;5599;52.210;21.046;2022-08-21T09:34:58;32.30;99.90
11091;DHT22;5599;52.210;21.046;2022-08-21T09:37:32;32.10;1.00
11091;DHT22;5599;52.210;21.046;2022-08-21T09:40:18;31.50;1.00
11091;DHT22;5599;52.210;21.046;2022-08-21T09:42:55;31.00;1.00
11091;DHT22;5599;52.210;21.046;2022-08-21T09:45:25;30.40;99.90
11091;DHT22;5599;52.210;21.046;2022-08-21T09:48:12;30.40;99.90
11091;DHT22;5599;52.210;21.046;2022-08-21T09:50:42;30.40;99.90
11091;DHT22;5599;52.210;21.046;2022-08-21T09:53:20;30.60;1.00
11091;DHT22;5599;52.210;21.046;2022-08-21T09:55:54;30.80;1.00
11091;DHT22;5599;52.210;21.046;2022-08-21T09:58:54;30.50;1.00
11091;DHT22;5599;52.210;21.046;2022-08-21T10:01:25;29.80;99.90
11091;DHT22;5599;52.210;21.046;2022-08-21T10:04:03;29.70;1.00
11091;DHT22;5599;52.210;21.046;2022-08-21T10:06:33;30.00;99.00
11091;DHT22;5599;52.210;21.046;2022-08-21T10:09:06;30.30;99.90
11091;DHT22;5599;52.210;21.046;2022-08-21T10:11:51;30.70;1.00
11091;DHT22;5599;52.210;21.046;2022-08-21T10:14:34;30.30;99.90
11091;DHT22;5599;52.210;21.046;2022-08-21T10:17:16;30.40;1.00
11091;DHT22;5599;52.210;21.046;2022-08-21T10:19:52;30.60;1.00
11091;DHT22;5599;52.210;21.046;2022-08-21T10:22:31;30.40;99.90
11091;DHT22;5599;52.210;21.046;2022-08-21T10:25:11;30.10;99.90
11091;DHT22;5599;52.210;21.046;2022-08-21T10:27:51;29.90;99.90
11091;DHT22;5599;52.210;21.046;2022-08-21T10:30:34;29.90;99.90
11091;DHT22;5599;52.210;21.046;2022-08-21T10:33:19;29.80;1.00
11091;DHT22;5599;52.210;21.046;2022-08-21T10:35:54;29.70;1.00
11091;DHT22;5599;52.210;21.046;2022-08-21T10:39:02;29.40;1.00
11091;DHT22;5599;52.210;21.046;2022-08-21T10:42:20;29.10;9.40
11091;DHT22;5599;52.210;21.046;2022-08-21T10:45:09;28.80;1.00
11091;DHT22;5599;52.210;21.046;2022-08-21T10:47:44;28.70;1.00
11091;DHT22;5599;52.210;21.046;2022-08-21T10:50:24;28.50;99.90
11091;DHT22;5599;52.210;21.046;2022-08-21T10:53:30;28.20;1.00
11091;DHT22;5599;52.210;21.046;2022-08-21T10:56:04;28.10;99.90
11091;DHT22;5599;52.210;21.046;2022-08-21T10:58:40;28.20;99.90
11091;DHT22;5599;52.210;21.046;2022-08-21T11:01:13;28.00;99.90
11091;DHT22;5599;52.210;21.046;2022-08-21T11:03:51;28.10;86.00
11091;DHT22;5599;52.210;21.046;2022-08-21T11:06:28;28.10;99.90
11091;DHT22;5599;52.210;21.046;2022-08-21T11:09:05;28.10;99.90
11091;DHT22;5599;52.210;21.046;2022-08-21T11:11:43;28.10;1.00
11091;DHT22;5599;52.210;21.046;2022-08-21T11:14:41;28.20;5.10
11091;DHT22;5599;52.210;21.046;2022-08-21T11:17:20;28.50;1.00
11091;DHT22;5599;52.210;21.046;2022-08-21T11:19:54;28.70;1.00
11091;DHT22;5599;52.210;21.046;2022-08-21T11:22:33;28.70;1.00
11091;DHT22;5599;52.210;21.046;2022-08-21T11:25:11;28.80;1.00
11091;DHT22;5599;52.210;21.046;2022-08-21T11:27:46;28.90;1.00
11091;DHT22;5599;52.210;21.046;2022-08-21T11:30:19;28.80;99.90
11091;DHT22;5599;52.210;21.046;2022-08-21T11:33:02;29.00;40.30
11091;DHT22;5599;52.210;21.046;2022-08-21T11:35:42;29.20;1.00
11091;DHT22;5599;52.210;21.046;2022-08-21T11:38:28;29.40;99.90
11091;DHT22;5599;52.210;21.046;2022-08-21T11:41:11;29.80;1.00
11091;DHT22;5599;52.210;21.046;2022-08-21T11:43:43;29.80;99.00
11091;DHT22;5599;52.210;21.046;2022-08-21T11:46:25;29.90;1.00
11091;DHT22;5599;52.210;21.046;2022-08-21T11:51:53;29.90;1.00
11091;DHT22;5599;52.210;21.046;2022-08-21T11:54:28;29.90;99.90
11091;DHT22;5599;52.210;21.046;2022-08-21T11:57:02;29.90;99.90
11091;DHT22;5599;52.210;21.046;2022-08-21T11:59:37;29.70;1.00
11091;DHT22;5599;52.210;21.046;2022-08-21T12:02:13;29.80;99.90
11091;DHT22;5599;52.210;21.046;2022-08-21T12:04:46;29.80;99.90
11091;DHT22;5599;52.210;21.046;2022-08-21T12:07:32;29.80;99.90
11091;DHT22;5599;52.210;21.046;2022-08-21T12:10:06;29.80;63.20
11091;DHT22;5599;52.210;21.046;2022-08-21T12:12:38;29.70;1.00
11091;DHT22;5599;52.210;21.046;2022-08-21T12:15:25;29.70;99.90
11091;DHT22;5599;52.210;21.046;2022-08-21T12:17:59;29.40;99.90
11091;DHT22;5599;52.210;21.046;2022-08-21T12:20:42;29.60;56.70
11091;DHT22;5599;52.210;21.046;2022-08-21T12:23:25;29.60;99.90
11091;DHT22;5599;52.210;21.046;2022-08-21T12:26:17;29.70;1.00
11091;DHT22;5599;52.210;21.046;2022-08-21T12:28:49;29.40;1.00
11091;DHT22;5599;52.210;21.046;2022-08-21T12:31:23;28.70;99.90
11091;DHT22;5599;52.210;21.046;2022-08-21T12:33:57;28.50;1.00
11091;DHT22;5599;52.210;21.046;2022-08-21T12:36:39;28.50;99.90
11091;DHT22;5599;52.210;21.046;2022-08-21T12:39:17;28.50;1.00
11091;DHT22;5599;52.210;21.046;2022-08-21T12:41:56;28.60;99.90
11091;DHT22;5599;52.210;21.046;2022-08-21T12:44:35;28.70;1.00
11091;DHT22;5599;52.210;21.046;2022-08-21T12:47:11;28.70;99.90
11091;DHT22;5599;52.210;21.046;2022-08-21T12:49:51;28.60;99.90
11091;DHT22;5599;52.210;21.046;2022-08-21T12:52:24;28.60;99.90
11091;DHT22;5599;52.210;21.046;2022-08-21T12:54:57;28.60;1.00
11091;DHT22;5599;52.210;21.046;2022-08-21T12:57:29;28.70;1.00
11091;DHT22;5599;52.210;21.046;2022-08-21T13:00:00;28.90;1.00
11091;DHT22;5599;52.210;21.046;2022-08-21T13:02:36;28.90;99.90
11091;DHT22;5599;52.210;21.046;2022-08-21T13:05:13;28.90;99.90
11091;DHT22;5599;52.210;21.046;2022-08-21T13:07:46;29.00;1.00
11091;DHT22;5599;52.210;21.046;2022-08-21T13:10:19;28.80;99.90
11091;DHT22;5599;52.210;21.046;2022-08-21T13:12:50;28.70;1.00
11091;DHT22;5599;52.210;21.046;2022-08-21T13:15:26;28.80;99.90
11091;DHT22;5599;52.210;21.046;2022-08-21T13:18:02;28.90;99.90
11091;DHT22;5599;52.210;21.046;2022-08-21T13:20:36;28.70;47.10
11091;DHT22;5599;52.210;21.046;2022-08-21T13:23:19;28.50;99.90
11091;DHT22;5599;52.210;21.046;2022-08-21T13:25:50;28.60;1.00
11091;DHT22;5599;52.210;21.046;2022-08-21T13:28:21;28.40;99.90
11091;DHT22;5599;52.210;21.046;2022-08-21T13:30:53;28.30;99.90
11091;DHT22;5599;52.210;21.046;2022-08-21T13:33:25;28.20;99.90
11091;DHT22;5599;52.210;21.046;2022-08-21T13:36:10;28.00;1.00
11091;DHT22;5599;52.210;21.046;2022-08-21T13:38:42;27.80;1.00
11091;DHT22;5599;52.210;21.046;2022-08-21T13:41:21;27.60;99.00
11091;DHT22;5599;52.210;21.046;2022-08-21T13:43:58;27.50;99.90
11091;DHT22;5599;52.210;21.046;2022-08-21T13:46:30;27.60;99.90
11091;DHT22;5599;52.210;21.046;2022-08-21T13:49:00;27.50;1.00
11091;DHT22;5599;52.210;21.046;2022-08-21T13:51:34;27.50;99.90
11091;DHT22;5599;52.210;21.046;2022-08-21T13:54:15;27.50;1.00
11091;DHT22;5599;52.210;21.046;2022-08-21T13:56:46;27.40;99.90
11091;DHT22;5599;52.210;21.046;2022-08-21T13:59:25;27.50;99.90
11091;DHT22;5599;52.210;21.046;2022-08-21T14:01:57;27.60;1.00
11091;DHT22;5599;52.210;21.046;2022-08-21T14:04:33;27.70;42.90
11091;DHT22;5599;52.210;21.046;2022-08-21T14:07:15;27.70;7.40
11091;DHT22;5599;52.210;21.046;2022-08-21T14:09:46;27.80;99.90
11091;DHT22;5599;52.210;21.046;2022-08-21T14:12:19;27.80;99.90
11091;DHT22;5599;52.210;21.046;2022-08-21T14:14:53;28.00;1.00
11091;DHT22;5599;52.210;21.046;2022-08-21T14:17:28;27.90;1.00
11091;DHT22;5599;52.210;21.046;2022-08-21T14:20:00;27.90;1.00
11091;DHT22;5599;52.210;21.046;2022-08-21T14:22:38;27.90;99.90
11091;DHT22;5599;52.210;21.046;2022-08-21T14:25:11;27.90;1.00
11091;DHT22;5599;52.210;21.046;2022-08-21T14:27:44;27.90;99.90
11091;DHT22;5599;52.210;21.046;2022-08-21T14:30:22;27.90;99.50
11091;DHT22;5599;52.210;21.046;2022-08-21T14:32:56;27.90;38.20
11091;DHT22;5599;52.210;21.046;2022-08-21T14:35:26;27.90;1.00
11091;DHT22;5599;52.210;21.046;2022-08-21T14:37:57;27.90;99.90
11091;DHT22;5599;52.210;21.046;2022-08-21T14:40:27;28.00;99.90
11091;DHT22;5599;52.210;21.046;2022-08-21T14:42:57;27.90;1.00
11091;DHT22;5599;52.210;21.046;2022-08-21T14:45:28;27.90;99.90
11091;DHT22;5599;52.210;21.046;2022-08-21T14:47:58;27.80;19.70
11091;DHT22;5599;52.210;21.046;2022-08-21T14:50:28;27.70;99.90
11091;DHT22;5599;52.210;21.046;2022-08-21T14:52:59;27.60;1.00
11091;DHT22;5599;52.210;21.046;2022-08-21T14:55:38;27.60;99.90
11091;DHT22;5599;52.210;21.046;2022-08-21T14:58:21;27.60;99.90
11091;DHT22;5599;52.210;21.046;2022-08-21T15:00:52;27.70;99.90
11091;DHT22;5599;52.210;21.046;2022-08-21T15:03:23;27.80;99.90
11091;DHT22;5599;52.210;21.046;2022-08-21T15:05:53;27.90;99.90
11091;DHT22;5599;52.210;21.046;2022-08-21T15:08:24;27.90;1.00
11091;DHT22;5599;52.210;21.046;2022-08-21T15:10:54;27.80;1.00
11091;DHT22;5599;52.210;21.046;2022-08-21T15:13:39;27.70;1.00
11091;DHT22;5599;52.210;21.046;2022-08-21T15:16:09;27.70;1.00
11091;DHT22;5599;52.210;21.046;2022-08-21T15:18:40;27.70;99.90
11091;DHT22;5599;52.210;21.046;2022-08-21T15:21:10;27.70;1.00
11091;DHT22;5599;52.210;21.046;2022-08-21T15:23:41;27.80;1.00
11091;DHT22;5599;52.210;21.046;2022-08-21T15:26:11;27.80;1.00
11091;DHT22;5599;52.210;21.046;2022-08-21T15:28:41;27.60;99.90
11091;DHT22;5599;52.210;21.046;2022-08-21T15:31:11;27.60;1.00
11091;DHT22;5599;52.210;21.046;2022-08-21T15:33:41;27.60;93.00
11091;DHT22;5599;52.210;21.046;2022-08-21T15:36:11;27.50;99.90
11091;DHT22;5599;52.210;21.046;2022-08-21T15:38:42;27.50;99.90
11091;DHT22;5599;52.210;21.046;2022-08-21T15:41:12;27.50;1.00
11091;DHT22;5599;52.210;21.046;2022-08-21T15:43:45;27.50;1.00
11091;DHT22;5599;52.210;21.046;2022-08-21T15:46:17;27.60;1.00
11091;DHT22;5599;52.210;21.046;2022-08-21T15:48:47;27.70;99.90
11091;DHT22;5599;52.210;21.046;2022-08-21T15:51:17;27.50;99.90
11091;DHT22;5599;52.210;21.046;2022-08-21T15:53:49;27.20;99.90
11091;DHT22;5599;52.210;21.046;2022-08-21T15:56:23;27.10;99.90
11091;DHT22;5599;52.210;21.046;2022-08-21T15:59:00;27.00;99.40
11091;DHT22;5599;52.210;21.046;2022-08-21T16:01:30;26.80;52.20
11091;DHT22;5599;52.210;21.046;2022-08-21T16:04:19;26.60;1.00
11091;DHT22;5599;52.210;21.046;2022-08-21T16:06:50;26.50;1.00
11091;DHT22;5599;52.210;21.046;2022-08-21T16:09:30;26.50;1.00
11091;DHT22;5599;52.210;21.046;2022-08-21T16:12:01;26.50;99.90
11091;DHT22;5599;52.210;21.046;2022-08-21T16:14:32;26.50;99.90
11091;DHT22;5599;52.210;21.046;2022-08-21T16:17:04;26.50;1.00
11091;DHT22;5599;52.210;21.046;2022-08-21T16:19:35;26.30;99.90